sensor_id;sensor_type;location;lat;lon;timestamp;pressure;altitude;pressure_sealevel;temperature;humidity
62948;BME280;51940;52.126;-0.994;2023-04-06T00:02:00;100280.38;;;8.34;100.00
62948;BME280;51940;52.126;-0.994;2023-04-06T00:04:25;100278.96;;;8.34;100.00
62948;BME280;51940;52.126;-0.994;2023-04-06T00:06:51;100277.19;;;8.34;100.00
62948;BME280;51940;52.126;-0.994;2023-04-06T00:09:17;100271.52;;;8.33;100.00
62948;BME280;51940;52.126;-0.994;2023-04-06T00:11:42;100271.87;;;8.33;100.00
62948;BME280;51940;52.126;-0.994;2023-04-06T00:14:07;100269.21;;;8.33;100.00
62948;BME280;51940;52.126;-0.994;2023-04-06T00:16:32;100268.67;;;8.33;100.00
62948;BME280;51940;52.126;-0.994;2023-04-06T00:18:58;100263.87;;;8.33;100.00
62948;BME280;51940;52.126;-0.994;2023-04-06T00:21:23;100258.20;;;8.33;100.00
62948;BME280;51940;52.126;-0.994;2023-04-06T00:23:48;100257.13;;;8.32;100.00
62948;BME280;51940;52.126;-0.994;2023-04-06T00:26:14;100256.42;;;8.32;100.00
62948;BME280;51940;52.126;-0.994;2023-04-06T00:28:39;100252.72;;;8.31;100.00
62948;BME280;51940;52.126;-0.994;2023-04-06T00:31:04;100250.94;;;8.31;100.00
62948;BME280;51940;52.126;-0.994;2023-04-06T00:33:30;100247.73;;;8.31;100.00
62948;BME280;51940;52.126;-0.994;2023-04-06T00:35:55;100242.95;;;8.31;100.00
62948;BME280;51940;52.126;-0.994;2023-04-06T00:38:21;100239.40;;;8.31;100.00
62948;BME280;51940;52.126;-0.994;2023-04-06T00:40:46;100238.50;;;8.31;100.00
62948;BME280;51940;52.126;-0.994;2023-04-06T00:43:12;100237.80;;;8.31;100.00
62948;BME280;51940;52.126;-0.994;2023-04-06T00:45:38;100236.54;;;8.31;100.00
62948;BME280;51940;52.126;-0.994;2023-04-06T00:48:03;100231.21;;;8.31;100.00
62948;BME280;51940;52.126;-0.994;2023-04-06T00:50:30;100225.36;;;8.31;100.00
62948;BME280;51940;52.126;-0.994;2023-04-06T00:52:55;100222.70;;;8.31;100.00
62948;BME280;51940;52.126;-0.994;2023-04-06T00:55:21;100220.55;;;8.31;100.00
62948;BME280;51940;52.126;-0.994;2023-04-06T00:57:46;100217.89;;;8.31;100.00
62948;BME280;51940;52.126;-0.994;2023-04-06T01:00:12;100211.51;;;8.31;100.00
62948;BME280;51940;52.126;-0.994;2023-04-06T01:02:38;100209.38;;;8.30;100.00
62948;BME280;51940;52.126;-0.994;2023-04-06T01:05:03;100208.82;;;8.32;100.00
62948;BME280;51940;52.126;-0.994;2023-04-06T01:07:28;100208.95;;;8.34;100.00
62948;BME280;51940;52.126;-0.994;2023-04-06T01:09:54;100206.64;;;8.34;100.00
62948;BME280;51940;52.126;-0.994;2023-04-06T01:12:19;100202.73;;;8.34;100.00
62948;BME280;51940;52.126;-0.994;2023-04-06T01:14:45;100195.62;;;8.34;100.00
62948;BME280;51940;52.126;-0.994;2023-04-06T01:17:10;100194.03;;;8.33;100.00
62948;BME280;51940;52.126;-0.994;2023-04-06T01:19:36;100189.77;;;8.33;100.00
62948;BME280;51940;52.126;-0.994;2023-04-06T01:22:01;100183.19;;;8.34;100.00
62948;BME280;51940;52.126;-0.994;2023-04-06T01:24:26;100180.88;;;8.35;100.00
62948;BME280;51940;52.126;-0.994;2023-04-06T01:26:52;100175.73;;;8.34;100.00
62948;BME280;51940;52.126;-0.994;2023-04-06T01:29:17;100171.81;;;8.34;100.00
62948;BME280;51940;52.126;-0.994;2023-04-06T01:31:42;100172.38;;;8.32;100.00
62948;BME280;51940;52.126;-0.994;2023-04-06T01:34:08;100170.74;;;8.34;100.00
62948;BME280;51940;52.126;-0.994;2023-04-06T01:36:33;100167.91;;;8.34;100.00
62948;BME280;51940;52.126;-0.994;2023-04-06T01:38:58;100163.64;;;8.35;100.00
62948;BME280;51940;52.126;-0.994;2023-04-06T01:41:23;100161.33;;;8.35;100.00
62948;BME280;51940;52.126;-0.994;2023-04-06T01:43:49;100158.66;;;8.34;100.00
62948;BME280;51940;52.126;-0.994;2023-04-06T01:46:19;100158.48;;;8.35;100.00
62948;BME280;51940;52.126;-0.994;2023-04-06T01:48:44;100153.52;;;8.34;100.00
62948;BME280;51940;52.126;-0.994;2023-04-06T01:51:10;100152.45;;;8.33;100.00
62948;BME280;51940;52.126;-0.994;2023-04-06T01:53:35;100147.14;;;8.33;100.00
62948;BME280;51940;52.126;-0.994;2023-04-06T01:56:01;100145.36;;;8.33;100.00
62948;BME280;51940;52.126;-0.994;2023-04-06T01:58:26;100141.80;;;8.33;100.00
62948;BME280;51940;52.126;-0.994;2023-04-06T02:00:51;100143.73;;;8.35;100.00
62948;BME280;51940;52.126;-0.994;2023-04-06T02:03:17;100136.96;;;8.36;100.00
62948;BME280;51940;52.126;-0.994;2023-04-06T02:05:42;100136.42;;;8.36;100.00
62948;BME280;51940;52.126;-0.994;2023-04-06T02:08:07;100130.73;;;8.37;100.00
62948;BME280;51940;52.126;-0.994;2023-04-06T02:10:33;100130.23;;;8.36;100.00
62948;BME280;51940;52.126;-0.994;2023-04-06T02:12:59;100126.66;;;8.36;100.00
62948;BME280;51940;52.126;-0.994;2023-04-06T02:15:25;100125.23;;;8.37;100.00
62948;BME280;51940;52.126;-0.994;2023-04-06T02:17:50;100119.89;;;8.37;100.00
62948;BME280;51940;52.126;-0.994;2023-04-06T02:20:16;100119.89;;;8.38;100.00
62948;BME280;51940;52.126;-0.994;2023-04-06T02:22:41;100118.09;;;8.39;100.00
62948;BME280;51940;52.126;-0.994;2023-04-06T02:25:07;100111.69;;;8.39;100.00
62948;BME280;51940;52.126;-0.994;2023-04-06T02:27:32;100111.15;;;8.40;100.00
62948;BME280;51940;52.126;-0.994;2023-04-06T02:29:58;100106.52;;;8.40;100.00
62948;BME280;51940;52.126;-0.994;2023-04-06T02:32:23;100102.42;;;8.40;100.00
62948;BME280;51940;52.126;-0.994;2023-04-06T02:34:49;100105.25;;;8.41;100.00
62948;BME280;51940;52.126;-0.994;2023-04-06T02:37:14;100101.68;;;8.42;100.00
62948;BME280;51940;52.126;-0.994;2023-04-06T02:39:39;100094.20;;;8.42;100.00
62948;BME280;51940;52.126;-0.994;2023-04-06T02:42:05;100091.16;;;8.43;100.00
62948;BME280;51940;52.126;-0.994;2023-04-06T02:44:30;100095.08;;;8.43;100.00
62948;BME280;51940;52.126;-0.994;2023-04-06T02:46:56;100094.53;;;8.43;100.00
62948;BME280;51940;52.126;-0.994;2023-04-06T02:49:22;100093.64;;;8.43;100.00
62948;BME280;51940;52.126;-0.994;2023-04-06T02:51:47;100090.79;;;8.43;100.00
62948;BME280;51940;52.126;-0.994;2023-04-06T02:54:13;100089.04;;;8.43;100.00
62948;BME280;51940;52.126;-0.994;2023-04-06T02:56:38;100087.41;;;8.43;100.00
62948;BME280;51940;52.126;-0.994;2023-04-06T02:59:03;100082.07;;;8.44;100.00
62948;BME280;51940;52.126;-0.994;2023-04-06T03:01:28;100082.96;;;8.44;100.00
62948;BME280;51940;52.126;-0.994;2023-04-06T03:03:54;100080.81;;;8.45;100.00
62948;BME280;51940;52.126;-0.994;2023-04-06T03:06:19;100081.52;;;8.45;100.00
62948;BME280;51940;52.126;-0.994;2023-04-06T03:08:45;100080.45;;;8.46;100.00
62948;BME280;51940;52.126;-0.994;2023-04-06T03:11:10;100078.31;;;8.46;100.00
62948;BME280;51940;52.126;-0.994;2023-04-06T03:13:36;100074.93;;;8.46;100.00
62948;BME280;51940;52.126;-0.994;2023-04-06T03:16:03;100069.60;;;8.46;100.00
62948;BME280;51940;52.126;-0.994;2023-04-06T03:18:28;100064.80;;;8.47;100.00
62948;BME280;51940;52.126;-0.994;2023-04-06T03:20:54;100062.67;;;8.46;100.00
62948;BME280;51940;52.126;-0.994;2023-04-06T03:23:20;100063.21;;;8.46;100.00
62948;BME280;51940;52.126;-0.994;2023-04-06T03:25:48;100059.13;;;8.46;100.00
62948;BME280;51940;52.126;-0.994;2023-04-06T03:28:13;100053.79;;;8.46;100.00
62948;BME280;51940;52.126;-0.994;2023-04-06T03:30:38;100050.75;;;8.47;100.00
62948;BME280;51940;52.126;-0.994;2023-04-06T03:33:04;100046.29;;;8.47;100.00
62948;BME280;51940;52.126;-0.994;2023-04-06T03:35:30;100046.65;;;8.47;100.00
62948;BME280;51940;52.126;-0.994;2023-04-06T03:37:55;100043.44;;;8.48;100.00
62948;BME280;51940;52.126;-0.994;2023-04-06T03:40:20;100041.11;;;8.49;100.00
62948;BME280;51940;52.126;-0.994;2023-04-06T03:42:46;100032.94;;;8.48;100.00
62948;BME280;51940;52.126;-0.994;2023-04-06T03:45:11;100033.46;;;8.49;100.00
62948;BME280;51940;52.126;-0.994;2023-04-06T03:47:38;100033.27;;;8.50;100.00
62948;BME280;51940;52.126;-0.994;2023-04-06T03:50:03;100033.61;;;8.51;100.00
62948;BME280;51940;52.126;-0.994;2023-04-06T03:52:29;100030.57;;;8.51;100.00
62948;BME280;51940;52.126;-0.994;2023-04-06T03:54:54;100031.63;;;8.52;100.00
62948;BME280;51940;52.126;-0.994;2023-04-06T03:57:20;100032.66;;;8.53;100.00
62948;BME280;51940;52.126;-0.994;2023-04-06T03:59:45;100028.75;;;8.53;100.00
62948;BME280;51940;52.126;-0.994;2023-04-06T04:02:11;100034.63;;;8.53;100.00
62948;BME280;51940;52.126;-0.994;2023-04-06T04:04:36;100029.83;;;8.53;100.00
62948;BME280;51940;52.126;-0.994;2023-04-06T04:07:01;100027.14;;;8.53;100.00
62948;BME280;51940;52.126;-0.994;2023-04-06T04:09:26;100015.22;;;8.54;100.00
62948;BME280;51940;52.126;-0.994;2023-04-06T04:11:52;100007.23;;;8.55;100.00
62948;BME280;51940;52.126;-0.994;2023-04-06T04:14:20;99997.61;;;8.55;100.00
62948;BME280;51940;52.126;-0.994;2023-04-06T04:16:46;99999.02;;;8.56;100.00
62948;BME280;51940;52.126;-0.994;2023-04-06T04:19:11;100000.08;;;8.56;100.00
62948;BME280;51940;52.126;-0.994;2023-04-06T04:21:42;100004.81;;;8.59;100.00
62948;BME280;51940;52.126;-0.994;2023-04-06T04:24:07;100009.92;;;8.60;100.00
62948;BME280;51940;52.126;-0.994;2023-04-06T04:26:33;100005.27;;;8.61;100.00
62948;BME280;51940;52.126;-0.994;2023-04-06T04:28:58;100001.52;;;8.62;100.00
62948;BME280;51940;52.126;-0.994;2023-04-06T04:31:23;100001.18;;;8.62;100.00
62948;BME280;51940;52.126;-0.994;2023-04-06T04:33:49;99998.67;;;8.62;100.00
62948;BME280;51940;52.126;-0.994;2023-04-06T04:36:14;99996.36;;;8.63;100.00
62948;BME280;51940;52.126;-0.994;2023-04-06T04:38:39;99999.02;;;8.64;100.00
62948;BME280;51940;52.126;-0.994;2023-04-06T04:41:14;99995.43;;;8.65;100.00
62948;BME280;51940;52.126;-0.994;2023-04-06T04:43:45;99996.30;;;8.66;100.00
62948;BME280;51940;52.126;-0.994;2023-04-06T04:46:10;99995.41;;;8.66;100.00
62948;BME280;51940;52.126;-0.994;2023-04-06T04:48:35;99997.00;;;8.66;100.00
62948;BME280;51940;52.126;-0.994;2023-04-06T04:51:01;99992.20;;;8.67;100.00
62948;BME280;51940;52.126;-0.994;2023-04-06T04:53:27;99993.25;;;8.67;100.00
62948;BME280;51940;52.126;-0.994;2023-04-06T04:55:52;99996.05;;;8.69;100.00
62948;BME280;51940;52.126;-0.994;2023-04-06T04:58:17;99988.03;;;8.69;100.00
62948;BME280;51940;52.126;-0.994;2023-04-06T05:00:45;99990.14;;;8.71;100.00
62948;BME280;51940;52.126;-0.994;2023-04-06T05:03:21;99986.39;;;8.72;100.00
62948;BME280;51940;52.126;-0.994;2023-04-06T05:05:47;99981.54;;;8.74;100.00
62948;BME280;51940;52.126;-0.994;2023-04-06T05:08:12;99979.00;;;8.75;100.00
62948;BME280;51940;52.126;-0.994;2023-04-06T05:10:38;99980.20;;;8.78;100.00
62948;BME280;51940;52.126;-0.994;2023-04-06T05:13:03;99984.95;;;8.79;100.00
62948;BME280;51940;52.126;-0.994;2023-04-06T05:15:28;99985.28;;;8.81;100.00
62948;BME280;51940;52.126;-0.994;2023-04-06T05:17:54;99983.46;;;8.83;100.00
62948;BME280;51940;52.126;-0.994;2023-04-06T05:20:20;99978.80;;;8.84;100.00
62948;BME280;51940;52.126;-0.994;2023-04-06T05:22:45;99977.33;;;8.86;100.00
62948;BME280;51940;52.126;-0.994;2023-04-06T05:25:10;99972.48;;;8.88;100.00
62948;BME280;51940;52.126;-0.994;2023-04-06T05:27:36;99984.04;;;8.88;100.00
62948;BME280;51940;52.126;-0.994;2023-04-06T05:30:01;99986.88;;;8.89;100.00
62948;BME280;51940;52.126;-0.994;2023-04-06T05:32:27;99989.00;;;8.90;100.00
62948;BME280;51940;52.126;-0.994;2023-04-06T05:34:52;99983.84;;;8.90;100.00
62948;BME280;51940;52.126;-0.994;2023-04-06T05:37:17;99984.54;;;8.90;100.00
62948;BME280;51940;52.126;-0.994;2023-04-06T05:39:43;99993.60;;;8.90;100.00
62948;BME280;51940;52.126;-0.994;2023-04-06T05:42:08;99995.00;;;8.91;100.00
62948;BME280;51940;52.126;-0.994;2023-04-06T05:44:36;99991.95;;;8.92;100.00
62948;BME280;51940;52.126;-0.994;2023-04-06T05:47:03;99996.57;;;8.92;100.00
62948;BME280;51940;52.126;-0.994;2023-04-06T05:49:28;99996.89;;;8.93;100.00
62948;BME280;51940;52.126;-0.994;2023-04-06T05:51:54;99998.66;;;8.94;100.00
62948;BME280;51940;52.126;-0.994;2023-04-06T05:54:20;99996.48;;;8.95;100.00
62948;BME280;51940;52.126;-0.994;2023-04-06T05:56:45;99994.85;;;8.97;100.00
62948;BME280;51940;52.126;-0.994;2023-04-06T05:59:11;99998.02;;;8.99;100.00
62948;BME280;51940;52.126;-0.994;2023-04-06T06:01:36;99997.46;;;9.00;100.00
62948;BME280;51940;52.126;-0.994;2023-04-06T06:04:01;99994.20;;;9.02;100.00
62948;BME280;51940;52.126;-0.994;2023-04-06T06:06:27;99993.27;;;9.03;100.00
62948;BME280;51940;52.126;-0.994;2023-04-06T06:08:53;99991.27;;;9.06;100.00
62948;BME280;51940;52.126;-0.994;2023-04-06T06:11:18;99989.77;;;9.09;100.00
62948;BME280;51940;52.126;-0.994;2023-04-06T06:13:43;99985.95;;;9.12;100.00
62948;BME280;51940;52.126;-0.994;2023-04-06T06:16:09;99977.15;;;9.16;100.00
62948;BME280;51940;52.126;-0.994;2023-04-06T06:18:34;99975.95;;;9.21;100.00
62948;BME280;51940;52.126;-0.994;2023-04-06T06:21:01;99973.81;;;9.27;100.00
62948;BME280;51940;52.126;-0.994;2023-04-06T06:23:26;99967.62;;;9.33;100.00
62948;BME280;51940;52.126;-0.994;2023-04-06T06:25:52;99974.55;;;9.40;100.00
62948;BME280;51940;52.126;-0.994;2023-04-06T06:28:17;99981.57;;;9.44;100.00
62948;BME280;51940;52.126;-0.994;2023-04-06T06:30:42;99979.90;;;9.47;100.00
62948;BME280;51940;52.126;-0.994;2023-04-06T06:33:08;99977.17;;;9.49;100.00
62948;BME280;51940;52.126;-0.994;2023-04-06T06:35:33;99975.70;;;9.51;100.00
62948;BME280;51940;52.126;-0.994;2023-04-06T06:37:58;99979.73;;;9.53;100.00
62948;BME280;51940;52.126;-0.994;2023-04-06T06:40:24;99984.28;;;9.56;100.00
62948;BME280;51940;52.126;-0.994;2023-04-06T06:42:49;99982.30;;;9.56;100.00
62948;BME280;51940;52.126;-0.994;2023-04-06T06:45:15;99985.85;;;9.58;100.00
62948;BME280;51940;52.126;-0.994;2023-04-06T06:47:41;99987.29;;;9.58;100.00
62948;BME280;51940;52.126;-0.994;2023-04-06T06:50:06;99988.70;;;9.57;100.00
62948;BME280;51940;52.126;-0.994;2023-04-06T06:52:31;99987.29;;;9.57;100.00
62948;BME280;51940;52.126;-0.994;2023-04-06T06:54:57;99990.32;;;9.57;100.00
62948;BME280;51940;52.126;-0.994;2023-04-06T06:57:22;99992.77;;;9.58;100.00
62948;BME280;51940;52.126;-0.994;2023-04-06T06:59:48;99990.61;;;9.59;100.00
62948;BME280;51940;52.126;-0.994;2023-04-06T07:02:13;99989.52;;;9.60;100.00
62948;BME280;51940;52.126;-0.994;2023-04-06T07:04:38;99990.53;;;9.62;100.00
62948;BME280;51940;52.126;-0.994;2023-04-06T07:07:03;99991.30;;;9.67;100.00
62948;BME280;51940;52.126;-0.994;2023-04-06T07:09:29;99993.66;;;9.72;100.00
62948;BME280;51940;52.126;-0.994;2023-04-06T07:11:55;99992.95;;;9.79;100.00
62948;BME280;51940;52.126;-0.994;2023-04-06T07:14:21;99994.17;;;9.86;100.00
62948;BME280;51940;52.126;-0.994;2023-04-06T07:16:46;99997.26;;;9.89;100.00
62948;BME280;51940;52.126;-0.994;2023-04-06T07:19:14;99998.89;;;9.88;100.00
62948;BME280;51940;52.126;-0.994;2023-04-06T07:21:39;99997.58;;;9.85;100.00
62948;BME280;51940;52.126;-0.994;2023-04-06T07:24:04;100001.06;;;9.81;100.00
62948;BME280;51940;52.126;-0.994;2023-04-06T07:26:30;100003.52;;;9.76;100.00
62948;BME280;51940;52.126;-0.994;2023-04-06T07:28:55;100005.93;;;9.72;100.00
62948;BME280;51940;52.126;-0.994;2023-04-06T07:31:20;100009.59;;;9.69;100.00
62948;BME280;51940;52.126;-0.994;2023-04-06T07:33:46;100009.48;;;9.66;100.00
62948;BME280;51940;52.126;-0.994;2023-04-06T07:36:12;100013.13;;;9.63;100.00
62948;BME280;51940;52.126;-0.994;2023-04-06T07:38:37;100012.41;;;9.63;100.00
62948;BME280;51940;52.126;-0.994;2023-04-06T07:41:02;100019.58;;;9.61;100.00
62948;BME280;51940;52.126;-0.994;2023-04-06T07:43:29;100023.56;;;9.59;100.00
62948;BME280;51940;52.126;-0.994;2023-04-06T07:45:55;100022.82;;;9.60;100.00
62948;BME280;51940;52.126;-0.994;2023-04-06T07:48:22;100016.48;;;9.64;100.00
62948;BME280;51940;52.126;-0.994;2023-04-06T07:50:47;100016.80;;;9.65;100.00
62948;BME280;51940;52.126;-0.994;2023-04-06T07:53:13;100020.63;;;9.69;100.00
62948;BME280;51940;52.126;-0.994;2023-04-06T07:55:38;100020.09;;;9.76;100.00
62948;BME280;51940;52.126;-0.994;2023-04-06T07:58:03;100023.86;;;9.81;100.00
62948;BME280;51940;52.126;-0.994;2023-04-06T08:00:29;100025.12;;;9.81;100.00
62948;BME280;51940;52.126;-0.994;2023-04-06T08:02:55;100026.30;;;9.77;100.00
62948;BME280;51940;52.126;-0.994;2023-04-06T08:05:20;100029.40;;;9.74;100.00
62948;BME280;51940;52.126;-0.994;2023-04-06T08:07:46;100030.05;;;9.70;100.00
62948;BME280;51940;52.126;-0.994;2023-04-06T08:10:11;100030.52;;;9.65;100.00
62948;BME280;51940;52.126;-0.994;2023-04-06T08:12:36;100034.73;;;9.61;100.00
62948;BME280;51940;52.126;-0.994;2023-04-06T08:15:02;100034.73;;;9.60;100.00
62948;BME280;51940;52.126;-0.994;2023-04-06T08:17:28;100034.00;;;9.61;100.00
62948;BME280;51940;52.126;-0.994;2023-04-06T08:19:55;100037.21;;;9.61;100.00
62948;BME280;51940;52.126;-0.994;2023-04-06T08:22:20;100039.80;;;9.64;100.00
62948;BME280;51940;52.126;-0.994;2023-04-06T08:24:46;100040.13;;;9.66;100.00
62948;BME280;51940;52.126;-0.994;2023-04-06T08:27:11;100044.05;;;9.66;100.00
62948;BME280;51940;52.126;-0.994;2023-04-06T08:29:39;100045.45;;;9.67;100.00
62948;BME280;51940;52.126;-0.994;2023-04-06T08:32:04;100044.06;;;9.72;100.00
62948;BME280;51940;52.126;-0.994;2023-04-06T08:34:32;100043.56;;;9.77;100.00
62948;BME280;51940;52.126;-0.994;2023-04-06T08:36:57;100051.35;;;9.86;100.00
62948;BME280;51940;52.126;-0.994;2023-04-06T08:39:22;100051.77;;;9.97;100.00
62948;BME280;51940;52.126;-0.994;2023-04-06T08:41:51;100059.69;;;10.06;100.00
62948;BME280;51940;52.126;-0.994;2023-04-06T08:44:17;100058.58;;;10.08;100.00
62948;BME280;51940;52.126;-0.994;2023-04-06T08:46:43;100062.58;;;10.05;100.00
62948;BME280;51940;52.126;-0.994;2023-04-06T08:49:08;100063.04;;;10.02;100.00
62948;BME280;51940;52.126;-0.994;2023-04-06T08:51:34;100066.27;;;10.01;100.00
62948;BME280;51940;52.126;-0.994;2023-04-06T08:54:00;100064.11;;;10.01;100.00
62948;BME280;51940;52.126;-0.994;2023-04-06T08:56:26;100066.35;;;10.04;100.00
62948;BME280;51940;52.126;-0.994;2023-04-06T08:58:52;100064.99;;;10.08;100.00
62948;BME280;51940;52.126;-0.994;2023-04-06T09:01:20;100062.02;;;10.12;100.00
62948;BME280;51940;52.126;-0.994;2023-04-06T09:03:46;100062.52;;;10.20;100.00
62948;BME280;51940;52.126;-0.994;2023-04-06T09:06:12;100063.02;;;10.29;100.00
62948;BME280;51940;52.126;-0.994;2023-04-06T09:08:38;100061.56;;;10.37;100.00
62948;BME280;51940;52.126;-0.994;2023-04-06T09:11:06;100064.63;;;10.41;100.00
62948;BME280;51940;52.126;-0.994;2023-04-06T09:13:43;100059.17;;;10.45;100.00
62948;BME280;51940;52.126;-0.994;2023-04-06T09:16:09;100052.33;;;10.53;100.00
62948;BME280;51940;52.126;-0.994;2023-04-06T09:18:35;100057.98;;;10.61;100.00
62948;BME280;51940;52.126;-0.994;2023-04-06T09:21:01;100060.21;;;10.64;100.00
62948;BME280;51940;52.126;-0.994;2023-04-06T09:23:27;100062.17;;;10.64;100.00
62948;BME280;51940;52.126;-0.994;2023-04-06T09:26:04;100064.15;;;10.63;100.00
62948;BME280;51940;52.126;-0.994;2023-04-06T09:28:40;100068.54;;;10.66;100.00
62948;BME280;51940;52.126;-0.994;2023-04-06T09:31:05;100072.16;;;10.70;100.00
62948;BME280;51940;52.126;-0.994;2023-04-06T09:33:30;100074.05;;;10.72;100.00
62948;BME280;51940;52.126;-0.994;2023-04-06T09:35:56;100075.98;;;10.80;100.00
62948;BME280;51940;52.126;-0.994;2023-04-06T09:38:21;100075.05;;;10.87;100.00
62948;BME280;51940;52.126;-0.994;2023-04-06T09:40:48;100077.05;;;10.97;100.00
62948;BME280;51940;52.126;-0.994;2023-04-06T09:43:22;100075.70;;;11.12;100.00
62948;BME280;51940;52.126;-0.994;2023-04-06T09:45:48;100082.58;;;11.26;100.00
62948;BME280;51940;52.126;-0.994;2023-04-06T09:48:14;100083.59;;;11.33;100.00
62948;BME280;51940;52.126;-0.994;2023-04-06T09:50:40;100091.68;;;11.38;100.00
62948;BME280;51940;52.126;-0.994;2023-04-06T09:53:05;100093.02;;;11.40;100.00
62948;BME280;51940;52.126;-0.994;2023-04-06T09:55:39;100093.25;;;11.55;100.00
62948;BME280;51940;52.126;-0.994;2023-04-06T09:58:06;100095.41;;;11.70;100.00
62948;BME280;51940;52.126;-0.994;2023-04-06T10:00:32;100093.38;;;11.78;100.00
62948;BME280;51940;52.126;-0.994;2023-04-06T10:03:11;100097.95;;;11.86;100.00
62948;BME280;51940;52.126;-0.994;2023-04-06T10:08:08;100105.34;;;12.05;100.00
62948;BME280;51940;52.126;-0.994;2023-04-06T10:10:34;100105.83;;;12.11;100.00
62948;BME280;51940;52.126;-0.994;2023-04-06T10:12:59;100106.41;;;12.15;100.00
62948;BME280;51940;52.126;-0.994;2023-04-06T10:15:27;100107.02;;;12.24;100.00
62948;BME280;51940;52.126;-0.994;2023-04-06T10:17:53;100108.21;;;12.20;100.00
62948;BME280;51940;52.126;-0.994;2023-04-06T10:23:02;100102.74;;;12.23;100.00
62948;BME280;51940;52.126;-0.994;2023-04-06T10:25:30;100090.24;;;12.18;100.00
62948;BME280;51940;52.126;-0.994;2023-04-06T10:28:00;100087.05;;;12.11;100.00
62948;BME280;51940;52.126;-0.994;2023-04-06T10:30:27;100086.91;;;12.10;100.00
62948;BME280;51940;52.126;-0.994;2023-04-06T10:32:53;100051.92;;;12.19;100.00
62948;BME280;51940;52.126;-0.994;2023-04-06T10:35:19;100050.13;;;12.34;100.00
62948;BME280;51940;52.126;-0.994;2023-04-06T10:38:00;100050.62;;;12.50;100.00
62948;BME280;51940;52.126;-0.994;2023-04-06T10:40:27;100051.59;;;12.62;100.00
62948;BME280;51940;52.126;-0.994;2023-04-06T10:42:53;100060.32;;;12.72;100.00
62948;BME280;51940;52.126;-0.994;2023-04-06T10:45:22;100061.70;;;12.78;100.00
62948;BME280;51940;52.126;-0.994;2023-04-06T10:47:49;100066.85;;;12.93;100.00
62948;BME280;51940;52.126;-0.994;2023-04-06T10:50:17;100065.80;;;13.06;100.00
62948;BME280;51940;52.126;-0.994;2023-04-06T10:52:44;100057.17;;;13.21;100.00
62948;BME280;51940;52.126;-0.994;2023-04-06T10:55:10;100067.17;;;13.35;100.00
62948;BME280;51940;52.126;-0.994;2023-04-06T10:57:37;100078.60;;;13.40;100.00
62948;BME280;51940;52.126;-0.994;2023-04-06T11:00:06;100089.80;;;13.38;100.00
62948;BME280;51940;52.126;-0.994;2023-04-06T11:02:32;100088.19;;;13.42;100.00
62948;BME280;51940;52.126;-0.994;2023-04-06T11:04:58;100090.69;;;13.51;100.00
62948;BME280;51940;52.126;-0.994;2023-04-06T11:07:24;100093.54;;;13.61;100.00
62948;BME280;51940;52.126;-0.994;2023-04-06T11:09:50;100099.70;;;13.54;100.00
62948;BME280;51940;52.126;-0.994;2023-04-06T11:12:25;100098.41;;;13.46;100.00
62948;BME280;51940;52.126;-0.994;2023-04-06T11:14:57;100101.40;;;13.39;100.00
62948;BME280;51940;52.126;-0.994;2023-04-06T11:17:36;100101.52;;;13.36;100.00
62948;BME280;51940;52.126;-0.994;2023-04-06T11:20:10;100100.27;;;13.45;100.00
62948;BME280;51940;52.126;-0.994;2023-04-06T11:22:36;100104.08;;;13.52;100.00
62948;BME280;51940;52.126;-0.994;2023-04-06T11:25:05;100105.61;;;13.46;100.00
62948;BME280;51940;52.126;-0.994;2023-04-06T11:27:33;100109.58;;;13.32;100.00
62948;BME280;51940;52.126;-0.994;2023-04-06T11:30:02;100110.30;;;13.27;100.00
62948;BME280;51940;52.126;-0.994;2023-04-06T11:32:27;100106.35;;;13.28;100.00
62948;BME280;51940;52.126;-0.994;2023-04-06T11:34:53;100106.47;;;13.24;100.00
62948;BME280;51940;52.126;-0.994;2023-04-06T11:37:18;100101.45;;;13.19;100.00
62948;BME280;51940;52.126;-0.994;2023-04-06T11:39:48;100105.41;;;13.19;100.00
62948;BME280;51940;52.126;-0.994;2023-04-06T11:42:21;100113.83;;;13.19;100.00
62948;BME280;51940;52.126;-0.994;2023-04-06T11:44:46;100113.48;;;13.23;100.00
62948;BME280;51940;52.126;-0.994;2023-04-06T11:47:15;100111.58;;;13.31;100.00
62948;BME280;51940;52.126;-0.994;2023-04-06T11:49:47;100120.27;;;13.33;100.00
62948;BME280;51940;52.126;-0.994;2023-04-06T11:52:22;100126.02;;;13.33;100.00
62948;BME280;51940;52.126;-0.994;2023-04-06T11:54:48;100121.11;;;13.35;100.00
62948;BME280;51940;52.126;-0.994;2023-04-06T11:57:14;100121.17;;;13.42;100.00
62948;BME280;51940;52.126;-0.994;2023-04-06T11:59:42;100131.54;;;13.47;100.00
62948;BME280;51940;52.126;-0.994;2023-04-06T12:02:07;100136.20;;;13.47;100.00
62948;BME280;51940;52.126;-0.994;2023-04-06T12:04:32;100138.77;;;13.59;100.00
62948;BME280;51940;52.126;-0.994;2023-04-06T12:06:58;100138.23;;;13.68;100.00
62948;BME280;51940;52.126;-0.994;2023-04-06T12:09:23;100134.41;;;13.69;100.00
62948;BME280;51940;52.126;-0.994;2023-04-06T12:11:49;100136.56;;;13.69;100.00
62948;BME280;51940;52.126;-0.994;2023-04-06T12:14:15;100130.61;;;13.70;100.00
62948;BME280;51940;52.126;-0.994;2023-04-06T12:16:41;100139.95;;;13.70;100.00
62948;BME280;51940;52.126;-0.994;2023-04-06T12:19:07;100147.48;;;13.69;100.00
62948;BME280;51940;52.126;-0.994;2023-04-06T12:21:35;100154.81;;;13.65;100.00
62948;BME280;51940;52.126;-0.994;2023-04-06T12:24:02;100157.27;;;13.58;100.00
62948;BME280;51940;52.126;-0.994;2023-04-06T12:26:29;100157.52;;;13.47;100.00
62948;BME280;51940;52.126;-0.994;2023-04-06T12:28:54;100154.56;;;13.36;100.00
62948;BME280;51940;52.126;-0.994;2023-04-06T12:31:20;100155.10;;;13.27;100.00
62948;BME280;51940;52.126;-0.994;2023-04-06T12:33:46;100156.17;;;13.17;100.00
62948;BME280;51940;52.126;-0.994;2023-04-06T12:36:13;100166.70;;;13.03;100.00
62948;BME280;51940;52.126;-0.994;2023-04-06T12:38:39;100163.41;;;12.91;100.00
62948;BME280;51940;52.126;-0.994;2023-04-06T12:41:05;100163.67;;;12.79;100.00